createdAt,value
2022-09-20T00:03:48.502Z,36.01
2022-09-20T00:08:47.801Z,36.32
2022-09-20T00:13:49.151Z,36.43
2022-09-20T00:18:46.455Z,36.94
2022-09-20T00:23:46.758Z,37.36
2022-09-20T00:28:45.101Z,37.58
2022-09-20T00:33:45.392Z,38.40
2022-09-20T00:38:43.723Z,37.66
2022-09-20T00:43:43.038Z,38.83
2022-09-20T00:48:42.410Z,38.63
2022-09-20T00:53:41.510Z,39.15
2022-09-20T00:58:41.808Z,39.65
2022-09-20T01:03:40.155Z,39.77
2022-09-20T01:08:39.493Z,40.07
2022-09-20T01:13:38.809Z,40.19
2022-09-20T01:18:37.765Z,40.09
2022-09-20T01:23:40.068Z,40.39
2022-09-20T01:28:36.372Z,40.39
2022-09-20T01:33:35.696Z,40.41
2022-09-20T01:38:36.011Z,40.91
2022-09-20T01:43:34.335Z,41.01
2022-09-20T01:48:33.710Z,41.11
2022-09-20T01:53:33.865Z,40.91
2022-09-20T01:58:31.966Z,40.93
2022-09-20T02:03:32.271Z,40.43
2022-09-20T02:08:31.560Z,39.27
2022-09-20T02:13:29.890Z,39.05
2022-09-20T02:18:29.029Z,38.75
2022-09-20T02:23:28.159Z,38.95
2022-09-20T02:28:26.459Z,38.57
2022-09-20T02:33:28.777Z,38.99
2022-09-20T02:38:26.106Z,38.99
2022-09-20T02:43:29.218Z,38.97
2022-09-20T02:48:25.501Z,39.09
2022-09-20T02:53:23.784Z,39.49
2022-09-20T02:58:23.139Z,39.59
2022-09-20T03:03:21.279Z,39.61
2022-09-20T03:08:21.429Z,39.79
2022-09-20T03:13:20.655Z,39.71
2022-09-20T03:18:20.784Z,40.03
2022-09-20T03:23:19.105Z,40.33
2022-09-20T03:28:18.420Z,40.45
2022-09-20T03:33:18.748Z,40.77
2022-09-20T03:38:17.029Z,41.09
2022-09-20T03:43:17.322Z,40.06
2022-09-20T03:48:15.696Z,39.32
2022-09-20T03:53:15.832Z,38.90
2022-09-20T03:58:16.112Z,38.59
2022-09-20T04:03:14.398Z,39.03
2022-09-20T04:08:13.746Z,39.32
2022-09-20T04:13:13.074Z,39.42
2022-09-20T04:18:13.207Z,39.53
2022-09-20T04:23:10.519Z,39.32
2022-09-20T04:28:09.823Z,39.84
2022-09-20T04:33:09.132Z,39.84
2022-09-20T04:38:09.438Z,39.95
2022-09-20T04:43:07.768Z,40.26
2022-09-20T04:48:08.056Z,40.06
2022-09-20T04:53:06.355Z,40.37
2022-09-20T04:58:05.721Z,40.30
2022-09-20T05:03:04.839Z,41.03
2022-09-20T05:08:03.144Z,39.48
2022-09-20T05:13:03.476Z,38.96
2022-09-20T05:18:02.776Z,38.14
2022-09-20T05:23:02.088Z,38.02
2022-09-20T05:28:01.418Z,38.24
2022-09-20T05:33:02.554Z,38.24
2022-09-20T05:37:59.850Z,38.86
2022-09-20T05:42:59.176Z,38.76
2022-09-20T05:47:59.339Z,39.06
2022-09-20T05:52:57.509Z,39.26
2022-09-20T05:57:57.662Z,39.47
2022-09-20T06:02:55.808Z,39.56
2022-09-20T06:07:55.168Z,39.76
2022-09-20T06:12:55.337Z,40.06
2022-09-20T06:17:53.497Z,40.48
2022-09-20T06:22:53.650Z,41.13
2022-09-20T06:27:52.958Z,40.28
2022-09-20T06:32:51.233Z,39.54
2022-09-20T06:37:51.581Z,38.92
2022-09-20T06:42:49.740Z,38.51
2022-09-20T06:47:50.023Z,38.37
2022-09-20T06:52:49.397Z,38.27
2022-09-20T06:57:46.555Z,39.42
2022-09-20T07:02:47.753Z,39.83
2022-09-20T07:07:45.864Z,39.42
2022-09-20T07:12:45.182Z,39.83
2022-09-20T07:17:45.337Z,39.42
2022-09-20T07:22:43.663Z,39.40
2022-09-20T07:27:43.967Z,39.40
2022-09-20T07:32:43.266Z,39.61
2022-09-20T07:37:41.573Z,39.83
2022-09-20T07:42:41.875Z,40.25
2022-09-20T07:47:41.186Z,39.21
2022-09-20T07:52:40.503Z,38.89
2022-09-20T07:57:38.890Z,37.61
2022-09-20T08:02:39.110Z,35.74
2022-09-20T08:07:37.253Z,35.14
2022-09-20T08:17:36.777Z,34.91
2022-09-20T08:22:34.869Z,35.01
2022-09-20T08:27:35.254Z,34.91
2022-09-20T08:32:34.344Z,34.93
2022-09-20T08:37:33.652Z,34.43
2022-09-20T08:42:39.048Z,35.54
2022-09-20T08:47:31.336Z,35.86
2022-09-20T08:52:35.904Z,36.90
2022-09-20T08:57:29.682Z,36.88
2022-09-20T09:02:30.052Z,36.28
2022-09-20T09:07:32.177Z,37.27
2022-09-20T09:12:27.511Z,36.44
2022-09-20T09:17:27.919Z,35.51
2022-09-20T09:22:25.904Z,34.05
2022-09-20T09:27:25.288Z,34.25
2022-09-20T09:32:26.409Z,33.63
2022-09-20T09:37:28.463Z,34.05
2022-09-20T09:42:23.973Z,34.15
2022-09-20T09:47:23.283Z,34.68
2022-09-20T09:52:22.738Z,34.86
2022-09-20T09:57:22.877Z,34.78
2022-09-20T10:02:19.098Z,35.28
2022-09-20T10:07:19.290Z,34.99
2022-09-20T10:12:19.462Z,35.29
2022-09-20T10:17:17.572Z,35.29
2022-09-20T10:22:17.907Z,35.21
2022-09-20T10:27:16.281Z,35.61
2022-09-20T10:32:15.594Z,36.63
2022-09-20T10:37:14.757Z,36.74
2022-09-20T10:42:13.939Z,37.34
2022-09-20T10:47:13.195Z,38.26
2022-09-20T10:52:14.410Z,37.56
2022-09-20T10:57:13.688Z,37.34
2022-09-20T11:02:09.937Z,36.64
2022-09-20T11:07:10.064Z,35.83
2022-09-20T11:12:10.398Z,34.91
2022-09-20T11:17:08.583Z,34.59
2022-09-20T11:22:07.737Z,34.99
2022-09-20T11:27:06.933Z,34.69
2022-09-20T11:32:06.143Z,34.69
2022-09-20T11:37:06.315Z,35.39
2022-09-20T11:42:03.549Z,35.31
2022-09-20T11:47:04.701Z,35.83
2022-09-20T11:52:02.834Z,35.83
2022-09-20T11:57:02.170Z,35.71
2022-09-20T12:02:01.575Z,36.11
2022-09-20T12:07:04.567Z,35.81
2022-09-20T12:12:00.900Z,36.01
2022-09-20T12:17:00.195Z,35.91
2022-09-20T12:21:59.583Z,35.49
2022-09-20T12:26:56.708Z,34.16
2022-09-20T12:31:57.835Z,33.75
2022-09-20T12:36:56.151Z,32.75
2022-09-20T12:41:56.497Z,32.15
2022-09-20T12:46:54.654Z,32.24
2022-09-20T12:51:53.796Z,32.84
2022-09-20T12:56:52.988Z,32.93
2022-09-20T13:01:52.274Z,32.64
2022-09-20T13:06:51.371Z,32.95
2022-09-20T13:11:50.709Z,32.27
2022-09-20T13:16:51.078Z,32.89
2022-09-20T13:21:49.220Z,32.80
2022-09-20T13:26:49.489Z,33.31
2022-09-20T13:31:46.680Z,33.72
2022-09-20T13:36:46.878Z,33.33
2022-09-20T13:41:45.108Z,34.05
2022-09-20T13:46:45.274Z,34.75
2022-09-20T13:51:44.419Z,34.33
2022-09-20T13:56:43.565Z,33.91
2022-09-20T14:01:42.905Z,32.78
2022-09-20T14:06:42.016Z,32.47
2022-09-20T14:11:41.397Z,32.06
2022-09-20T14:16:41.531Z,32.15
2022-09-20T14:21:38.643Z,31.96
2022-09-20T14:26:39.982Z,31.86
2022-09-20T14:31:38.358Z,31.96
2022-09-20T14:36:37.548Z,31.97
2022-09-20T14:41:36.774Z,32.42
2022-09-20T14:46:35.952Z,32.60
2022-09-20T14:51:35.085Z,33.12
2022-09-20T14:56:34.412Z,33.43
2022-09-20T15:01:33.530Z,33.75
2022-09-20T15:06:32.911Z,34.06
2022-09-20T15:11:31.033Z,35.08
2022-09-20T15:16:31.444Z,35.60
2022-09-20T15:21:30.600Z,36.10
2022-09-20T15:26:29.715Z,35.69
2022-09-20T15:31:29.118Z,35.08
2022-09-20T15:36:29.320Z,35.18
2022-09-20T15:41:31.091Z,35.49
2022-09-20T18:09:12.947Z,39.95
2022-09-20T18:14:12.037Z,39.33
2022-09-20T18:19:11.296Z,38.40
2022-09-20T18:24:11.534Z,37.99
2022-09-20T18:29:10.806Z,37.08
2022-09-20T18:34:11.115Z,37.40
2022-09-20T18:39:08.401Z,37.40
2022-09-20T18:44:07.715Z,37.49
2022-09-20T18:49:07.000Z,37.54
2022-09-20T18:54:07.272Z,37.76
2022-09-20T18:59:05.646Z,36.82
2022-09-20T19:04:05.800Z,36.72
2022-09-20T19:09:05.058Z,36.19
2022-09-20T19:14:03.167Z,35.94
2022-09-20T19:19:02.472Z,36.79
2022-09-20T19:24:03.416Z,37.23
2022-09-20T19:29:01.156Z,37.32
2022-09-20T19:34:01.243Z,37.44
2022-09-20T19:38:59.590Z,37.52
2022-09-20T19:43:58.697Z,37.38
2022-09-20T19:48:57.991Z,37.60
2022-09-20T19:53:58.358Z,37.10
2022-09-20T19:58:58.567Z,36.19
2022-09-20T20:03:55.921Z,37.07
2022-09-20T20:08:55.010Z,36.54
2022-09-20T20:13:55.310Z,37.47
2022-09-20T20:18:53.690Z,38.10
2022-09-20T20:23:53.795Z,38.10
2022-09-20T20:28:52.067Z,38.00
2022-09-20T20:33:53.336Z,38.18
2022-09-20T20:38:50.614Z,38.07
2022-09-20T20:43:50.893Z,38.09
2022-09-20T20:48:50.186Z,38.72
2022-09-20T20:53:48.513Z,39.00
2022-09-20T20:58:48.782Z,39.30
2022-09-20T21:03:47.077Z,40.34
2022-09-20T21:08:49.573Z,39.40
2022-09-20T21:13:45.610Z,40.00
2022-09-20T21:18:46.955Z,39.10
2022-09-20T21:23:45.224Z,38.90
2022-09-20T21:28:43.471Z,42.69
2022-09-20T21:33:42.768Z,47.16
2022-09-20T21:38:42.139Z,47.11
2022-09-20T21:43:41.233Z,46.65
2022-09-20T21:48:40.566Z,46.87
2022-09-20T21:53:39.900Z,46.92
2022-09-20T21:58:41.225Z,47.95
2022-09-20T22:03:38.501Z,46.99
2022-09-20T22:08:37.787Z,45.44
2022-09-20T22:13:37.081Z,43.87
2022-09-20T22:18:36.389Z,46.59
2022-09-20T22:23:35.692Z,45.42
2022-09-20T22:28:35.048Z,45.54
2022-09-20T22:33:35.191Z,45.54
2022-09-20T22:38:33.490Z,45.50
2022-09-20T22:43:32.798Z,47.13
2022-09-20T22:48:33.109Z,45.95
2022-09-20T22:53:32.380Z,47.56
2022-09-20T22:58:32.795Z,40.16
2022-09-20T23:03:30.880Z,37.88
2022-09-20T23:08:29.297Z,37.29
2022-09-20T23:13:28.434Z,37.17
2022-09-20T23:18:28.585Z,37.15
2022-09-20T23:23:27.696Z,36.76
2022-09-20T23:28:25.074Z,37.17
2022-09-20T23:33:25.238Z,37.88
2022-09-20T23:38:24.532Z,38.50
2022-09-20T23:43:24.872Z,38.72
2022-09-20T23:48:23.059Z,39.15
2022-09-20T23:53:22.177Z,39.67
2022-09-20T23:58:21.338Z,39.98
